createdAt,value
2022-11-13T00:01:28.298Z,11.52
2022-11-13T00:04:13.698Z,9.70
2022-11-13T00:06:59.782Z,10.43
2022-11-13T00:09:45.712Z,10.15
2022-11-13T00:12:31.181Z,10.07
2022-11-13T00:15:16.908Z,10.63
2022-11-13T00:18:03.191Z,8.93
2022-11-13T00:20:48.642Z,9.18
2022-11-13T00:23:35.537Z,11.35
2022-11-13T00:26:24.701Z,9.18
2022-11-13T00:29:11.082Z,9.73
2022-11-13T00:31:56.625Z,10.55
2022-11-13T00:34:47.560Z,7.88
2022-11-13T00:37:33.888Z,7.95
2022-11-13T00:40:19.355Z,8.05
2022-11-13T00:43:04.987Z,8.40
2022-11-13T00:45:50.825Z,7.03
2022-11-13T00:48:36.789Z,7.65
2022-11-13T00:51:23.013Z,9.38
2022-11-13T00:54:08.208Z,7.70
2022-11-13T00:56:53.627Z,9.00
2022-11-13T00:59:39.103Z,7.43
2022-11-13T01:02:24.496Z,10.70
2022-11-13T01:05:09.972Z,7.40
2022-11-13T01:07:55.551Z,11.05
2022-11-13T01:10:53.341Z,7.32
2022-11-13T01:13:40.854Z,6.95
2022-11-13T01:16:27.914Z,7.35
2022-11-13T01:19:13.131Z,7.03
2022-11-13T01:21:58.666Z,7.78
2022-11-13T01:24:44.170Z,6.80
2022-11-13T01:27:29.701Z,7.47
2022-11-13T01:30:15.452Z,7.88
2022-11-13T01:33:00.883Z,8.15
2022-11-13T01:35:46.464Z,8.73
2022-11-13T01:38:36.189Z,7.07
2022-11-13T01:41:25.950Z,8.25
2022-11-13T01:44:17.163Z,7.25
2022-11-13T01:47:04.302Z,8.13
2022-11-13T01:49:54.350Z,8.23
2022-11-13T01:52:41.514Z,6.60
2022-11-13T01:55:27.220Z,8.32
2022-11-13T01:58:13.861Z,5.65
2022-11-13T02:00:59.274Z,6.70
2022-11-13T02:03:44.436Z,7.35
2022-11-13T02:06:36.801Z,7.53
2022-11-13T02:09:26.370Z,6.03
2022-11-13T02:12:14.940Z,7.28
2022-11-13T02:15:02.906Z,8.35
2022-11-13T02:17:57.362Z,5.85
2022-11-13T02:21:01.959Z,7.03
2022-11-13T02:23:57.061Z,7.38
2022-11-13T02:26:43.628Z,6.38
2022-11-13T02:29:28.946Z,8.55
2022-11-13T02:32:14.236Z,10.23
2022-11-13T02:34:59.602Z,7.50
2022-11-13T02:37:45.081Z,9.07
2022-11-13T02:40:32.204Z,9.02
2022-11-13T02:43:17.420Z,7.50
2022-11-13T02:46:02.799Z,7.32
2022-11-13T02:48:48.460Z,6.95
2022-11-13T02:51:33.638Z,7.43
2022-11-13T02:54:19.119Z,9.48
2022-11-13T02:57:04.620Z,6.72
2022-11-13T02:59:50.132Z,8.25
2022-11-13T03:02:35.510Z,7.57
2022-11-13T03:05:20.957Z,7.18
2022-11-13T03:08:06.922Z,7.53
2022-11-13T03:10:53.430Z,6.05
2022-11-13T03:13:39.116Z,6.80
2022-11-13T03:16:24.501Z,6.55
2022-11-13T03:19:10.028Z,6.43
2022-11-13T03:21:55.638Z,7.65
2022-11-13T03:24:41.237Z,5.90
2022-11-13T03:27:26.765Z,6.60
2022-11-13T03:30:12.448Z,6.00
2022-11-13T03:32:58.085Z,5.85
2022-11-13T03:35:46.893Z,8.07
2022-11-13T03:38:33.311Z,7.28
2022-11-13T03:41:18.914Z,6.38
2022-11-13T03:44:04.370Z,9.32
2022-11-13T03:46:49.490Z,6.28
2022-11-13T03:49:34.987Z,7.10
2022-11-13T03:52:20.341Z,6.38
2022-11-13T03:55:06.214Z,9.32
2022-11-13T03:57:51.843Z,8.50
2022-11-13T04:00:40.319Z,6.68
2022-11-13T04:03:25.764Z,5.63
2022-11-13T04:06:11.363Z,4.53
2022-11-13T04:08:57.561Z,5.53
2022-11-13T04:11:42.844Z,5.82
2022-11-13T04:14:28.293Z,5.22
2022-11-13T04:17:13.745Z,4.90
2022-11-13T04:19:59.280Z,4.50
2022-11-13T04:22:44.723Z,5.20
2022-11-13T04:25:30.361Z,5.32
2022-11-13T04:28:15.648Z,5.40
2022-11-13T04:31:01.142Z,7.28
2022-11-13T04:33:46.354Z,5.10
2022-11-13T04:36:31.907Z,6.60
2022-11-13T04:39:17.468Z,5.45
2022-11-13T04:42:21.191Z,7.85
2022-11-13T04:45:07.125Z,5.90
2022-11-13T04:47:52.655Z,5.50
2022-11-13T04:50:38.175Z,9.13
2022-11-13T04:53:23.761Z,6.47
2022-11-13T04:56:09.224Z,5.18
2022-11-13T04:58:54.670Z,7.22
2022-11-13T05:01:40.322Z,5.68
2022-11-13T05:04:25.759Z,5.15
2022-11-13T05:07:12.046Z,5.38
2022-11-13T05:09:57.617Z,5.28
2022-11-13T05:12:43.030Z,4.30
2022-11-13T05:15:28.465Z,5.22
2022-11-13T05:18:14.357Z,6.50
2022-11-13T05:21:00.285Z,5.40
2022-11-13T05:23:45.619Z,5.00
2022-11-13T05:26:31.863Z,5.65
2022-11-13T05:29:17.257Z,4.50
2022-11-13T05:32:02.462Z,4.50
2022-11-13T05:34:48.027Z,7.70
2022-11-13T05:37:33.467Z,5.60
2022-11-13T05:40:19.022Z,5.10
2022-11-13T05:43:04.559Z,5.07
2022-11-13T05:45:49.830Z,5.03
2022-11-13T05:48:35.759Z,5.82
2022-11-13T05:51:23.744Z,4.53
2022-11-13T05:54:09.067Z,4.78
2022-11-13T05:56:54.764Z,5.93
2022-11-13T05:59:40.117Z,4.55
2022-11-13T06:02:25.457Z,4.40
2022-11-13T06:05:11.307Z,5.25
2022-11-13T06:07:56.766Z,4.10
2022-11-13T06:10:42.361Z,4.30
2022-11-13T06:13:28.207Z,4.38
2022-11-13T06:16:22.489Z,5.03
2022-11-13T06:19:09.921Z,7.70
2022-11-13T06:21:55.507Z,4.65
2022-11-13T06:24:40.970Z,4.20
2022-11-13T06:27:28.111Z,4.00
2022-11-13T06:30:14.104Z,4.50
2022-11-13T06:32:59.557Z,4.45
2022-11-13T06:35:45.237Z,4.10
2022-11-13T06:38:35.639Z,4.85
2022-11-13T06:41:24.362Z,5.15
2022-11-13T06:44:10.191Z,4.60
2022-11-13T06:46:55.870Z,6.90
2022-11-13T06:49:41.229Z,4.20
2022-11-13T06:52:26.621Z,7.60
2022-11-13T06:55:12.435Z,4.15
2022-11-13T06:57:57.814Z,5.13
2022-11-13T07:00:43.895Z,4.22
2022-11-13T07:03:29.306Z,5.68
2022-11-13T07:06:20.774Z,5.18
2022-11-13T07:09:06.574Z,5.32
2022-11-13T07:11:51.909Z,5.40
2022-11-13T07:14:37.326Z,4.53
2022-11-13T07:17:22.961Z,4.57
2022-11-13T07:20:08.579Z,5.18
2022-11-13T07:22:58.573Z,4.45
2022-11-13T07:25:43.883Z,4.32
2022-11-13T07:28:29.773Z,4.45
2022-11-13T07:31:17.311Z,5.10
2022-11-13T07:34:02.948Z,4.88
2022-11-13T07:36:48.128Z,4.15
2022-11-13T07:39:33.606Z,5.13
2022-11-13T07:42:19.023Z,5.30
2022-11-13T07:45:05.908Z,10.38
2022-11-13T07:47:51.517Z,7.15
2022-11-13T07:50:38.658Z,4.55
2022-11-13T07:53:23.842Z,4.20
2022-11-13T07:56:09.429Z,8.82
2022-11-13T07:58:54.754Z,4.68
2022-11-13T08:01:40.658Z,5.90
2022-11-13T08:04:26.043Z,5.15
2022-11-13T08:07:12.872Z,4.97
2022-11-13T08:09:58.578Z,4.13
2022-11-13T08:12:44.902Z,6.88
2022-11-13T08:15:31.438Z,7.57
2022-11-13T08:18:17.232Z,7.13
2022-11-13T08:21:04.564Z,9.77
2022-11-13T08:23:52.982Z,11.18
2022-11-13T08:26:39.921Z,8.13
2022-11-13T08:29:25.600Z,8.73
2022-11-13T08:32:13.884Z,9.32
2022-11-13T08:34:59.334Z,11.48
2022-11-13T08:37:44.740Z,9.73
2022-11-13T08:40:30.445Z,9.43
2022-11-13T08:43:16.235Z,10.88
2022-11-13T08:46:01.755Z,8.63
2022-11-13T08:48:47.119Z,6.05
2022-11-13T08:51:32.830Z,8.38
2022-11-13T08:54:21.119Z,9.90
2022-11-13T08:57:06.377Z,6.07
2022-11-13T08:59:51.873Z,6.38
2022-11-13T09:02:37.224Z,6.78
2022-11-13T09:05:23.594Z,8.35
2022-11-13T09:08:10.682Z,6.03
2022-11-13T09:10:56.307Z,5.85
2022-11-13T09:13:45.145Z,5.75
2022-11-13T09:16:32.977Z,7.80
2022-11-13T09:19:18.387Z,7.93
2022-11-13T09:22:03.811Z,10.40
2022-11-13T09:24:49.628Z,10.05
2022-11-13T09:27:34.930Z,10.52
2022-11-13T09:30:20.532Z,6.95
2022-11-13T09:33:06.686Z,8.93
2022-11-13T09:35:52.754Z,10.15
2022-11-13T09:38:38.886Z,6.88
2022-11-13T09:41:29.690Z,11.68
2022-11-13T09:44:29.461Z,7.07
2022-11-13T09:47:29.975Z,6.15
2022-11-13T09:50:22.078Z,7.30
2022-11-13T09:53:10.048Z,7.88
2022-11-13T09:56:18.704Z,7.13
2022-11-13T09:59:23.645Z,6.50
2022-11-13T10:02:20.839Z,10.25
2022-11-13T10:05:13.694Z,5.60
2022-11-13T10:08:17.853Z,5.15
2022-11-13T10:11:22.758Z,6.85
2022-11-13T10:14:29.255Z,5.63
2022-11-13T10:17:33.004Z,8.52
2022-11-13T10:20:54.218Z,6.90
2022-11-13T10:23:39.580Z,6.20
2022-11-13T10:26:28.737Z,7.43
2022-11-13T10:29:17.691Z,5.00
2022-11-13T10:32:18.370Z,5.65
2022-11-13T10:35:06.661Z,24.33
2022-11-13T10:38:25.584Z,23.73
2022-11-13T10:41:16.494Z,9.95
2022-11-13T10:44:07.054Z,10.00
2022-11-13T10:47:03.966Z,7.43
2022-11-13T10:49:51.715Z,7.22
2022-11-13T10:52:46.708Z,5.63
2022-11-13T10:55:40.266Z,5.30
2022-11-13T10:58:26.027Z,7.18
2022-11-13T11:01:23.997Z,8.15
2022-11-13T11:04:29.728Z,6.70
2022-11-13T11:07:21.796Z,7.15
2022-11-13T11:10:31.083Z,5.25
2022-11-13T11:13:22.918Z,6.30
2022-11-13T11:16:11.770Z,8.55
2022-11-13T11:19:04.726Z,6.32
2022-11-13T11:21:53.798Z,6.72
2022-11-13T11:24:46.190Z,6.88
2022-11-13T11:27:45.943Z,9.75
2022-11-13T11:30:49.692Z,4.15
2022-11-13T11:33:52.613Z,4.25
2022-11-13T11:37:17.042Z,5.45
2022-11-13T11:40:15.316Z,4.40
2022-11-13T11:43:37.445Z,5.18
2022-11-13T11:46:24.496Z,3.75
2022-11-13T11:49:10.978Z,6.30
2022-11-13T11:52:05.309Z,4.43
2022-11-13T11:55:18.910Z,5.75
2022-11-13T11:58:10.290Z,5.28
2022-11-13T12:01:04.969Z,5.15
2022-11-13T12:03:56.273Z,4.50
2022-11-13T12:06:42.082Z,3.83
2022-11-13T12:10:02.341Z,3.55
2022-11-13T12:13:06.580Z,3.90
2022-11-13T12:16:01.205Z,4.38
2022-11-13T12:18:46.456Z,4.28
2022-11-13T12:22:04.535Z,5.40
2022-11-13T12:24:55.347Z,4.53
2022-11-13T12:28:02.269Z,5.60
2022-11-13T12:31:39.026Z,3.63
2022-11-13T12:34:28.768Z,4.15
2022-11-13T12:37:37.340Z,10.65
2022-11-13T12:40:33.318Z,7.70
2022-11-13T12:43:49.644Z,4.93
2022-11-13T12:46:42.237Z,5.13
2022-11-13T12:49:35.837Z,4.93
2022-11-13T12:52:24.374Z,4.50
2022-11-13T12:55:40.625Z,4.22
2022-11-13T12:58:29.099Z,7.13
2022-11-13T13:01:18.695Z,4.70
2022-11-13T13:04:36.324Z,3.63
2022-11-13T13:08:03.608Z,3.72
2022-11-13T13:11:13.589Z,4.03
2022-11-13T13:14:33.492Z,6.25
2022-11-13T13:17:22.029Z,3.88
2022-11-13T13:20:16.035Z,3.70
2022-11-13T13:23:06.010Z,3.90
2022-11-13T13:26:05.191Z,4.72
2022-11-13T13:28:56.219Z,3.92
2022-11-13T13:31:52.972Z,3.85
2022-11-13T13:35:14.810Z,7.80
2022-11-13T13:38:23.873Z,3.53
2022-11-13T13:41:17.929Z,3.13
2022-11-13T13:44:22.087Z,3.85
2022-11-13T13:47:19.421Z,3.92
2022-11-13T13:50:07.929Z,3.65
2022-11-13T13:52:56.116Z,7.63
2022-11-13T13:55:48.228Z,5.05
2022-11-13T13:58:36.772Z,4.88
2022-11-13T14:01:30.987Z,3.22
2022-11-13T14:04:22.273Z,4.25
2022-11-13T14:07:39.458Z,3.80
2022-11-13T14:10:28.134Z,3.47
2022-11-13T14:13:14.637Z,4.60
2022-11-13T14:16:07.184Z,3.67
2022-11-13T14:19:03.905Z,4.40
2022-11-13T14:21:52.108Z,2.85
2022-11-13T14:24:51.878Z,5.45
2022-11-13T14:27:37.967Z,4.90
2022-11-13T14:30:28.126Z,4.38
2022-11-13T14:33:21.936Z,4.47
2022-11-13T14:36:07.903Z,2.97
2022-11-13T14:38:53.469Z,4.50
2022-11-13T14:41:50.337Z,4.07
2022-11-13T14:44:35.917Z,4.30
2022-11-13T14:47:37.315Z,3.08
2022-11-13T14:50:36.540Z,4.35
2022-11-13T14:53:34.110Z,3.30
2022-11-13T14:56:19.466Z,3.30
2022-11-13T14:59:19.587Z,3.00
2022-11-13T15:02:06.911Z,3.20
2022-11-13T15:04:52.297Z,3.95
2022-11-13T15:07:42.083Z,2.85
2022-11-13T15:10:30.022Z,3.13
2022-11-13T15:13:16.992Z,5.05
2022-11-13T15:16:02.308Z,2.83
2022-11-13T15:18:54.617Z,3.22
2022-11-13T15:21:40.785Z,4.75
2022-11-13T15:24:26.409Z,2.63
2022-11-13T15:27:16.907Z,2.40
2022-11-13T15:30:02.227Z,3.33
2022-11-13T15:32:53.204Z,4.15
2022-11-13T15:35:38.626Z,4.68
2022-11-13T15:38:24.261Z,2.53
2022-11-13T15:41:15.146Z,5.88
2022-11-13T15:44:02.367Z,3.33
2022-11-13T15:46:47.941Z,5.22
2022-11-13T15:49:33.465Z,4.65
2022-11-13T15:52:19.595Z,5.90
2022-11-13T15:55:13.372Z,6.82
2022-11-13T15:57:59.724Z,7.53
2022-11-13T16:00:46.073Z,9.73
2022-11-13T16:03:34.448Z,10.15
2022-11-13T16:06:23.946Z,7.60
2022-11-13T16:09:15.388Z,9.15
2022-11-13T16:12:01.599Z,9.27
2022-11-13T16:14:47.352Z,10.98
2022-11-13T16:17:39.426Z,9.15
2022-11-13T16:20:24.649Z,16.42
2022-11-13T16:23:15.850Z,10.68
2022-11-13T16:26:04.520Z,9.10
2022-11-13T16:29:12.684Z,9.57
2022-11-13T16:31:58.134Z,9.23
2022-11-13T16:34:44.322Z,11.38
2022-11-13T16:37:29.960Z,8.75
2022-11-13T16:40:21.177Z,10.85
2022-11-13T16:43:06.542Z,10.10
2022-11-13T16:45:52.925Z,8.75
2022-11-13T16:48:38.611Z,9.43
2022-11-13T16:51:24.283Z,10.70
2022-11-13T16:54:09.397Z,13.93
2022-11-13T16:56:54.858Z,10.30
2022-11-13T16:59:40.875Z,11.75
2022-11-13T17:02:26.271Z,13.10
2022-11-13T17:05:16.045Z,15.68
2022-11-13T17:08:01.870Z,15.98
2022-11-13T17:10:55.618Z,14.27
2022-11-13T17:13:40.875Z,10.75
2022-11-13T17:16:28.439Z,14.00
2022-11-13T17:19:14.474Z,16.08
2022-11-13T17:22:00.032Z,15.68
2022-11-13T17:24:45.704Z,15.63
2022-11-13T17:27:31.295Z,13.80
2022-11-13T17:30:17.131Z,17.65
2022-11-13T17:33:02.702Z,16.52
2022-11-13T17:35:54.352Z,15.13
2022-11-13T17:38:40.104Z,15.63
2022-11-13T17:41:25.464Z,18.70
2022-11-13T17:44:10.742Z,15.43
2022-11-13T17:46:56.117Z,17.20
2022-11-13T17:49:41.477Z,17.35
2022-11-13T17:52:27.281Z,21.20
2022-11-13T17:55:14.225Z,19.02
2022-11-13T17:58:00.863Z,19.58
2022-11-13T18:00:46.400Z,18.33
2022-11-13T18:03:32.054Z,20.77
2022-11-13T18:06:19.999Z,30.13
2022-11-13T18:09:09.320Z,31.75
2022-11-13T18:11:54.705Z,26.10
2022-11-13T18:14:40.220Z,33.63
2022-11-13T18:17:26.009Z,25.90
2022-11-13T18:20:15.119Z,25.58
2022-11-13T18:23:01.193Z,32.63
2022-11-13T18:25:47.012Z,27.40
2022-11-13T18:28:32.317Z,30.25
2022-11-13T18:31:20.150Z,24.95
2022-11-13T18:34:07.476Z,23.63
2022-11-13T18:36:53.515Z,21.02
2022-11-13T18:39:38.925Z,22.17
2022-11-13T18:42:24.742Z,22.65
2022-11-13T18:45:11.949Z,25.08
2022-11-13T18:47:57.614Z,24.17
2022-11-13T18:50:43.298Z,25.65
2022-11-13T18:53:29.899Z,28.05
2022-11-13T18:56:27.136Z,26.13
2022-11-13T18:59:12.448Z,24.33
2022-11-13T19:01:57.874Z,25.15
2022-11-13T19:04:43.295Z,28.30
2022-11-13T19:07:28.722Z,28.00
2022-11-13T19:10:16.321Z,25.35
2022-11-13T19:13:01.570Z,28.00
2022-11-13T19:15:50.111Z,27.08
2022-11-13T19:18:37.449Z,25.25
2022-11-13T19:21:24.960Z,29.10
2022-11-13T19:24:11.843Z,29.40
2022-11-13T19:26:57.658Z,30.58
2022-11-13T19:29:42.939Z,25.85
2022-11-13T19:32:29.720Z,23.90
2022-11-13T19:35:15.180Z,25.55
2022-11-13T19:38:01.862Z,26.60
2022-11-13T19:40:50.115Z,30.00
2022-11-13T19:43:37.599Z,35.15
2022-11-13T19:46:22.854Z,28.15
2022-11-13T19:49:08.457Z,32.53
2022-11-13T19:51:54.868Z,36.65
2022-11-13T19:54:42.093Z,31.73
2022-11-13T19:57:27.270Z,26.40
2022-11-13T20:00:17.208Z,28.65
2022-11-13T20:03:07.309Z,23.52
2022-11-13T20:06:00.127Z,27.95
2022-11-13T20:08:45.488Z,28.15
2022-11-13T20:11:32.308Z,23.27
2022-11-13T20:14:17.943Z,22.55
2022-11-13T20:17:03.610Z,20.25
2022-11-13T20:19:49.294Z,22.55
2022-11-13T20:22:35.518Z,21.25
2022-11-13T20:25:21.282Z,22.70
2022-11-13T20:28:06.355Z,20.45
2022-11-13T20:30:52.103Z,22.95
2022-11-13T20:33:37.454Z,22.05
2022-11-13T20:36:23.603Z,21.05
2022-11-13T20:39:09.592Z,22.45
2022-11-13T20:41:55.410Z,18.42
2022-11-13T20:44:41.170Z,19.77
2022-11-13T20:47:27.827Z,21.00
2022-11-13T20:50:13.167Z,18.70
2022-11-13T20:52:58.614Z,18.02
2022-11-13T20:55:44.018Z,22.40
2022-11-13T20:58:31.308Z,21.13
2022-11-13T21:01:20.612Z,19.17
2022-11-13T21:04:06.205Z,18.73
2022-11-13T21:06:52.462Z,16.60
2022-11-13T21:09:38.371Z,20.88
2022-11-13T21:12:23.717Z,19.15
2022-11-13T21:15:09.572Z,19.80
2022-11-13T21:17:55.318Z,15.48
2022-11-13T21:20:42.562Z,19.48
2022-11-13T21:23:29.844Z,19.95
2022-11-13T21:26:15.930Z,21.95
2022-11-13T21:29:01.435Z,22.15
2022-11-13T21:31:47.989Z,19.77
2022-11-13T21:34:33.561Z,19.63
2022-11-13T21:37:18.993Z,19.70
2022-11-13T21:40:05.654Z,18.63
2022-11-13T21:42:50.906Z,18.85
2022-11-13T21:45:36.556Z,20.63
2022-11-13T21:48:22.248Z,21.30
2022-11-13T21:51:08.418Z,17.25
2022-11-13T21:53:53.759Z,21.83
2022-11-13T21:56:39.654Z,20.98
2022-11-13T21:59:25.244Z,19.83
2022-11-13T22:02:11.435Z,18.75
2022-11-13T22:04:56.711Z,17.25
2022-11-13T22:07:43.148Z,19.65
2022-11-13T22:10:28.532Z,17.40
2022-11-13T22:13:16.704Z,15.45
2022-11-13T22:16:06.917Z,16.02
2022-11-13T22:18:56.901Z,19.42
2022-11-13T22:21:42.982Z,17.80
2022-11-13T22:24:29.590Z,16.63
2022-11-13T22:27:14.829Z,15.10
2022-11-13T22:30:00.244Z,15.02
2022-11-13T22:32:54.483Z,16.25
2022-11-13T22:35:41.416Z,14.48
2022-11-13T22:38:27.255Z,13.25
2022-11-13T22:41:23.513Z,14.20
2022-11-13T22:44:14.329Z,15.73
2022-11-13T22:46:59.975Z,12.25
2022-11-13T22:49:45.412Z,13.75
2022-11-13T22:52:30.855Z,12.88
2022-11-13T22:55:16.343Z,12.40
2022-11-13T22:58:01.744Z,13.75
2022-11-13T23:00:47.506Z,13.63
2022-11-13T23:03:36.425Z,14.88
2022-11-13T23:06:24.634Z,13.88
2022-11-13T23:09:10.628Z,11.63
2022-11-13T23:11:55.784Z,13.00
2022-11-13T23:14:41.299Z,8.75
2022-11-13T23:17:26.825Z,11.80
2022-11-13T23:20:12.934Z,9.23
2022-11-13T23:22:58.426Z,27.00
2022-11-13T23:25:44.091Z,10.70
2022-11-13T23:28:29.557Z,10.38
2022-11-13T23:31:15.114Z,11.05
2022-11-13T23:34:00.174Z,10.68
2022-11-13T23:36:45.736Z,18.40
2022-11-13T23:39:31.237Z,10.95
2022-11-13T23:42:33.032Z,10.75
2022-11-13T23:45:22.171Z,9.68
2022-11-13T23:48:07.644Z,10.13
2022-11-13T23:50:53.209Z,9.77
2022-11-13T23:53:38.731Z,10.57
2022-11-13T23:56:24.148Z,9.23
2022-11-13T23:59:09.663Z,9.73
